createdAt,value
2019-02-10T00:01:24.833Z,100093.45
2019-02-10T00:03:53.893Z,100092.24
2019-02-10T00:06:24.859Z,100087.21
2019-02-10T00:08:54.565Z,100089.43
2019-02-10T00:11:24.075Z,100090.69
2019-02-10T00:13:53.552Z,100090.75
2019-02-10T00:16:23.086Z,100091.20
2019-02-10T00:18:52.115Z,100089.09
2019-02-10T00:21:21.169Z,100091.18
2019-02-10T00:23:50.190Z,100097.51
2019-02-10T00:26:19.551Z,100095.32
2019-02-10T00:28:48.594Z,100096.87
2019-02-10T00:31:17.610Z,100098.10
2019-02-10T00:33:46.626Z,100101.13
2019-02-10T00:36:15.682Z,100101.13
2019-02-10T00:38:44.624Z,100093.14
2019-02-10T00:41:13.998Z,100103.74
2019-02-10T00:43:43.062Z,100095.41
2019-02-10T00:46:12.086Z,100095.84
2019-02-10T00:48:41.140Z,100097.59
2019-02-10T00:51:10.196Z,100086.70
2019-02-10T00:53:39.129Z,100079.98
2019-02-10T00:56:08.495Z,100079.60
2019-02-10T00:58:37.506Z,100077.51
2019-02-10T01:01:06.501Z,100064.06
2019-02-10T01:03:35.522Z,100063.66
2019-02-10T01:06:04.535Z,100067.82
2019-02-10T01:08:33.577Z,100064.45
2019-02-10T01:11:02.631Z,100084.63
2019-02-10T01:13:31.716Z,100083.83
2019-02-10T01:16:00.731Z,100084.28
2019-02-10T01:18:29.790Z,100085.49
2019-02-10T01:20:58.798Z,100077.05
2019-02-10T01:23:27.848Z,100081.21
2019-02-10T01:25:57.040Z,100075.11
2019-02-10T01:28:26.097Z,100065.70
2019-02-10T01:30:55.165Z,100066.26
2019-02-10T01:33:24.476Z,100066.89
2019-02-10T01:35:53.840Z,100071.27
2019-02-10T01:38:22.890Z,100071.00
2019-02-10T01:40:52.279Z,100055.20
2019-02-10T01:43:21.597Z,100054.99
2019-02-10T01:45:50.616Z,100058.28
2019-02-10T01:48:19.628Z,100059.05
2019-02-10T01:50:48.686Z,100045.44
2019-02-10T01:53:17.716Z,100045.08
2019-02-10T01:55:46.766Z,100039.06
2019-02-10T01:58:15.706Z,100051.05
2019-02-10T02:00:45.065Z,100044.16
2019-02-10T02:03:14.074Z,100046.47
2019-02-10T02:05:43.208Z,100027.78
2019-02-10T02:08:12.537Z,100030.64
2019-02-10T02:10:41.606Z,100027.70
2019-02-10T02:13:10.625Z,100021.92
2019-02-10T02:15:39.638Z,100015.98
2019-02-10T02:18:08.689Z,100021.38
2019-02-10T02:20:37.697Z,100017.02
2019-02-10T02:23:06.670Z,100013.60
2019-02-10T02:25:35.739Z,100008.37
2019-02-10T02:28:04.751Z,100010.16
2019-02-10T02:30:33.788Z,100003.30
2019-02-10T02:33:02.827Z,99996.52
2019-02-10T02:35:31.841Z,99997.22
2019-02-10T02:38:00.891Z,99989.61
2019-02-10T02:40:30.217Z,99982.00
2019-02-10T02:42:59.194Z,99973.52
2019-02-10T02:45:28.247Z,99971.51
2019-02-10T02:47:57.289Z,99965.08
2019-02-10T02:50:26.709Z,99958.39
2019-02-10T02:52:55.787Z,99954.06
2019-02-10T02:55:25.147Z,99951.57
2019-02-10T02:57:54.166Z,99946.89
2019-02-10T03:00:23.098Z,99936.84
2019-02-10T03:02:52.158Z,99938.98
2019-02-10T03:05:21.168Z,99939.29
2019-02-10T03:07:50.164Z,99939.59
2019-02-10T03:10:19.157Z,99933.73
2019-02-10T03:12:48.188Z,99934.04
2019-02-10T03:15:17.184Z,99929.05
2019-02-10T03:17:46.229Z,99920.18
2019-02-10T03:20:15.240Z,99927.78
2019-02-10T03:22:44.293Z,99923.28
2019-02-10T03:25:13.405Z,99914.80
2019-02-10T03:27:42.455Z,99915.28
2019-02-10T03:30:11.984Z,99912.79
2019-02-10T03:32:41.045Z,99910.13
2019-02-10T03:35:10.212Z,99908.02
2019-02-10T03:37:39.224Z,99902.52
2019-02-10T03:40:08.233Z,99895.88
2019-02-10T03:42:37.310Z,99895.53
2019-02-10T03:45:06.624Z,99890.11
2019-02-10T03:47:35.926Z,99888.84
2019-02-10T03:50:05.433Z,99886.84
2019-02-10T03:52:34.488Z,99871.92
2019-02-10T03:55:03.496Z,99868.02
2019-02-10T03:57:32.681Z,99874.23
2019-02-10T04:00:02.086Z,99876.42
2019-02-10T04:02:31.026Z,99862.95
2019-02-10T04:05:00.035Z,99866.31
2019-02-10T04:07:35.962Z,99855.26
2019-02-10T04:09:59.766Z,99861.70
2019-02-10T04:12:28.781Z,99859.55
2019-02-10T04:14:57.756Z,99852.38
2019-02-10T04:17:26.700Z,99850.12
2019-02-10T04:19:56.038Z,99852.39
2019-02-10T04:22:25.038Z,99842.52
2019-02-10T04:24:54.381Z,99841.86
2019-02-10T04:27:23.451Z,99839.77
2019-02-10T04:29:52.798Z,99830.80
2019-02-10T04:32:21.848Z,99830.06
2019-02-10T04:34:51.038Z,99829.19
2019-02-10T04:37:20.085Z,99832.42
2019-02-10T04:39:49.120Z,99822.41
2019-02-10T04:42:18.162Z,99818.09
2019-02-10T04:44:48.930Z,99808.34
2019-02-10T04:47:17.884Z,99802.53
2019-02-10T04:49:47.240Z,99800.39
2019-02-10T04:52:16.252Z,99788.94
2019-02-10T04:54:45.846Z,99788.50
2019-02-10T04:57:14.775Z,99783.88
2019-02-10T04:59:43.818Z,99783.13
2019-02-10T05:02:12.866Z,99790.60
2019-02-10T05:04:41.885Z,99791.73
2019-02-10T05:07:10.943Z,99778.27
2019-02-10T05:09:39.953Z,99782.08
2019-02-10T05:12:08.973Z,99778.97
2019-02-10T05:14:38.404Z,99779.84
2019-02-10T05:17:07.466Z,99774.08
2019-02-10T05:19:36.446Z,99768.14
2019-02-10T05:22:05.503Z,99767.66
2019-02-10T05:24:34.511Z,99758.58
2019-02-10T05:27:03.449Z,99753.02
2019-02-10T05:29:32.495Z,99748.97
2019-02-10T05:32:01.574Z,99744.03
2019-02-10T05:34:30.582Z,99744.91
2019-02-10T05:36:59.619Z,99738.27
2019-02-10T05:39:28.682Z,99734.66
2019-02-10T05:41:57.689Z,99728.66
2019-02-10T05:44:26.697Z,99715.66
2019-02-10T05:46:55.677Z,99714.04
2019-02-10T05:49:25.050Z,99715.26
2019-02-10T05:51:53.988Z,99705.61
2019-02-10T05:54:23.057Z,99702.20
2019-02-10T05:56:52.102Z,99698.40
2019-02-10T05:59:21.041Z,99692.45
2019-02-10T06:02:22.236Z,99689.63
2019-02-10T06:04:51.252Z,99685.39
2019-02-10T06:07:20.296Z,99673.36
2019-02-10T06:09:49.238Z,99666.06
2019-02-10T06:12:18.928Z,99666.59
2019-02-10T06:14:47.904Z,99660.25
2019-02-10T06:17:18.454Z,99652.70
2019-02-10T06:19:47.484Z,99648.81
2019-02-10T06:22:16.550Z,99650.86
2019-02-10T06:24:45.481Z,99637.75
2019-02-10T06:27:15.314Z,99634.34
2019-02-10T06:29:45.170Z,99628.88
2019-02-10T06:32:14.581Z,99627.70
2019-02-10T06:34:44.237Z,99623.08
2019-02-10T06:37:13.110Z,99623.56
2019-02-10T06:39:42.074Z,99621.03
2019-02-10T06:42:11.128Z,99624.34
2019-02-10T06:44:39.983Z,99618.41
2019-02-10T06:47:09.028Z,99615.77
2019-02-10T06:49:38.109Z,99609.48
2019-02-10T06:52:07.116Z,99610.13
2019-02-10T06:54:37.973Z,99607.69
2019-02-10T06:57:06.977Z,99601.74
2019-02-10T06:59:44.204Z,99601.74
2019-02-10T07:02:31.295Z,99599.11
2019-02-10T07:05:00.309Z,99601.25
2019-02-10T07:07:29.393Z,99591.55
2019-02-10T07:09:58.419Z,99584.97
2019-02-10T07:12:50.197Z,99580.19
2019-02-10T07:16:05.550Z,99577.61
2019-02-10T07:19:10.518Z,99580.48
2019-02-10T07:21:43.496Z,99575.36
2019-02-10T07:24:52.900Z,99576.00
2019-02-10T07:27:28.048Z,99578.67
2019-02-10T07:30:37.253Z,99565.45
2019-02-10T07:33:21.257Z,99565.36
2019-02-10T07:36:16.295Z,99559.84
2019-02-10T07:39:11.334Z,99557.26
2019-02-10T07:41:59.851Z,99557.16
2019-02-10T07:44:51.985Z,99535.55
2019-02-10T07:47:54.711Z,99542.16
2019-02-10T07:50:49.139Z,99535.89
2019-02-10T07:53:52.269Z,99530.98
2019-02-10T07:57:01.905Z,99525.91
2019-02-10T08:00:13.671Z,99521.28
2019-02-10T08:03:41.841Z,99510.15
2019-02-10T08:06:55.984Z,99501.14
2019-02-10T08:10:16.080Z,99494.31
2019-02-10T08:13:33.173Z,99482.52
2019-02-10T08:16:35.619Z,99481.75
2019-02-10T08:19:36.675Z,99478.66
2019-02-10T08:22:59.083Z,99469.29
2019-02-10T08:26:00.793Z,99460.36
2019-02-10T08:29:11.390Z,99458.86
2019-02-10T08:32:32.672Z,99443.47
2019-02-10T08:35:36.027Z,99442.92
2019-02-10T08:38:54.404Z,99450.14
2019-02-10T08:41:49.374Z,99442.59
2019-02-10T08:44:44.424Z,99429.02
2019-02-10T08:47:36.923Z,99427.93
2019-02-10T08:50:19.279Z,99425.93
2019-02-10T08:52:55.713Z,99424.63
2019-02-10T08:55:24.775Z,99423.39
2019-02-10T08:57:53.894Z,99417.28
2019-02-10T09:00:22.936Z,99405.75
2019-02-10T09:02:51.989Z,99401.06
2019-02-10T09:05:21.002Z,99400.18
2019-02-10T09:07:50.046Z,99384.72
2019-02-10T09:10:19.158Z,99380.74
2019-02-10T09:12:48.168Z,99378.64
2019-02-10T09:15:17.223Z,99380.56
2019-02-10T09:17:46.258Z,99365.40
2019-02-10T09:20:15.266Z,99348.97
2019-02-10T09:22:44.435Z,99342.12
2019-02-10T09:25:13.710Z,99340.03
2019-02-10T09:27:42.716Z,99333.94
2019-02-10T09:30:12.741Z,99331.47
2019-02-10T09:32:41.761Z,99329.44
2019-02-10T09:35:11.020Z,99316.37
2019-02-10T09:37:40.061Z,99304.56
2019-02-10T09:40:10.095Z,99294.03
2019-02-10T09:42:39.125Z,99288.08
2019-02-10T09:45:10.739Z,99281.48
2019-02-10T09:47:39.777Z,99273.48
2019-02-10T09:50:11.653Z,99255.73
2019-02-10T09:52:40.857Z,99238.59
2019-02-10T09:55:09.888Z,99225.91
2019-02-10T09:57:38.743Z,99217.55
2019-02-10T10:00:10.121Z,99205.42
2019-02-10T10:02:39.185Z,99193.89
2019-02-10T10:05:09.247Z,99215.18
2019-02-10T10:07:38.262Z,99224.66
2019-02-10T10:10:08.515Z,99214.36
2019-02-10T10:12:37.561Z,99206.11
2019-02-10T10:15:07.963Z,99199.90
2019-02-10T10:17:37.011Z,99195.33
2019-02-10T10:20:07.461Z,99177.25
2019-02-10T10:22:36.512Z,99166.66
2019-02-10T10:25:05.749Z,99169.13
2019-02-10T10:27:34.809Z,99163.48
2019-02-10T10:30:03.959Z,99164.50
2019-02-10T10:32:32.969Z,99178.02
2019-02-10T10:35:02.025Z,99194.52
2019-02-10T10:37:31.416Z,99182.32
2019-02-10T10:40:00.397Z,99185.05
2019-02-10T10:42:29.463Z,99178.00
2019-02-10T10:44:58.467Z,99171.72
2019-02-10T10:47:27.480Z,99164.48
2019-02-10T10:49:56.565Z,99157.00
2019-02-10T10:52:25.637Z,99154.93
2019-02-10T10:54:54.628Z,99153.41
2019-02-10T10:57:25.233Z,99129.12
2019-02-10T10:59:54.309Z,99120.45
2019-02-10T11:02:23.663Z,99106.55
2019-02-10T11:04:52.716Z,99101.68
2019-02-10T11:07:21.768Z,99101.76
2019-02-10T11:09:50.779Z,99100.30
2019-02-10T11:12:19.786Z,99087.56
2019-02-10T11:14:48.848Z,99068.92
2019-02-10T11:17:17.865Z,99061.56
2019-02-10T11:19:46.875Z,99060.54
2019-02-10T11:22:15.924Z,99057.75
2019-02-10T11:24:44.893Z,99045.45
2019-02-10T11:27:13.917Z,99045.83
2019-02-10T11:29:42.811Z,99038.91
2019-02-10T11:32:12.055Z,99036.27
2019-02-10T11:34:46.078Z,99031.70
2019-02-10T11:37:11.815Z,99023.20
2019-02-10T11:39:43.730Z,99011.22
2019-02-10T11:42:11.561Z,99009.77
2019-02-10T11:44:40.601Z,99003.61
2019-02-10T11:47:09.565Z,99003.34
2019-02-10T11:49:39.712Z,98981.84
2019-02-10T11:52:08.721Z,98962.58
2019-02-10T11:54:37.780Z,98967.84
2019-02-10T11:57:06.883Z,98952.50
2019-02-10T11:59:35.819Z,98938.89
2019-02-10T12:02:05.109Z,98935.03
2019-02-10T12:04:34.167Z,98937.70
2019-02-10T12:07:03.182Z,98928.86
2019-02-10T12:09:32.259Z,98912.05
2019-02-10T12:12:01.268Z,98892.06
2019-02-10T12:14:30.332Z,98882.95
2019-02-10T12:16:59.674Z,98873.47
2019-02-10T12:19:28.739Z,98877.09
2019-02-10T12:21:57.744Z,98866.59
2019-02-10T12:24:26.793Z,98869.08
2019-02-10T12:26:55.873Z,98873.58
2019-02-10T12:29:24.893Z,98876.42
2019-02-10T12:31:53.905Z,98868.58
2019-02-10T12:34:22.956Z,98849.84
2019-02-10T12:36:51.929Z,98832.89
2019-02-10T12:39:20.977Z,98813.64
2019-02-10T12:41:50.024Z,98808.70
2019-02-10T12:44:19.031Z,98810.03
2019-02-10T12:46:48.389Z,98820.03
2019-02-10T12:49:17.441Z,98803.14
2019-02-10T12:51:46.384Z,98796.23
2019-02-10T12:54:15.432Z,98790.58
2019-02-10T12:56:44.485Z,98782.64
2019-02-10T12:59:14.404Z,98771.90
2019-02-10T13:01:43.461Z,98763.36
2019-02-10T13:04:12.601Z,98771.47
2019-02-10T13:06:41.638Z,98763.02
2019-02-10T13:09:12.259Z,98762.78
2019-02-10T13:11:41.347Z,98750.97
2019-02-10T13:14:10.420Z,98747.10
2019-02-10T13:16:39.448Z,98743.30
2019-02-10T13:19:08.505Z,98736.59
2019-02-10T13:21:37.552Z,98730.03
2019-02-10T13:24:06.573Z,98723.25
2019-02-10T13:26:35.962Z,98724.52
2019-02-10T13:29:04.953Z,98723.45
2019-02-10T13:31:33.904Z,98714.32
2019-02-10T13:34:02.963Z,98707.92
2019-02-10T13:36:31.973Z,98704.02
2019-02-10T13:39:00.991Z,98697.66
2019-02-10T13:41:37.904Z,98692.08
2019-02-10T13:44:07.347Z,98688.22
2019-02-10T13:46:36.400Z,98680.92
2019-02-10T13:49:05.469Z,98681.81
2019-02-10T13:51:34.516Z,98678.27
2019-02-10T13:54:03.656Z,98668.34
2019-02-10T13:56:32.830Z,98677.52
2019-02-10T13:59:01.835Z,98673.27
2019-02-10T14:01:30.702Z,98683.47
2019-02-10T14:03:59.747Z,98690.78
2019-02-10T14:06:28.752Z,98682.37
2019-02-10T14:08:57.833Z,98674.16
2019-02-10T14:11:26.881Z,98665.33
2019-02-10T14:13:55.888Z,98663.89
2019-02-10T14:16:24.949Z,98663.07
2019-02-10T14:18:53.901Z,98653.86
2019-02-10T14:21:22.948Z,98651.16
2019-02-10T14:23:51.937Z,98643.77
2019-02-10T14:26:21.267Z,98640.15
2019-02-10T14:28:50.277Z,98628.86
2019-02-10T14:31:19.289Z,98625.77
2019-02-10T14:33:48.260Z,98627.09
2019-02-10T14:36:17.198Z,98621.91
2019-02-10T14:38:46.190Z,98616.58
2019-02-10T14:41:15.213Z,98615.42
2019-02-10T14:43:44.590Z,98614.16
2019-02-10T14:46:13.657Z,98611.19
2019-02-10T14:48:42.714Z,98620.55
2019-02-10T14:51:11.778Z,98602.61
2019-02-10T14:53:40.783Z,98601.14
2019-02-10T14:56:09.820Z,98597.37
2019-02-10T14:58:43.131Z,98601.53
2019-02-10T15:01:09.610Z,98599.39
2019-02-10T15:03:38.701Z,98596.11
2019-02-10T15:06:07.749Z,98590.87
2019-02-10T15:08:36.702Z,98604.89
2019-02-10T15:11:05.766Z,98604.84
2019-02-10T15:13:34.836Z,98613.93
2019-02-10T15:16:03.767Z,98606.86
2019-02-10T15:18:32.805Z,98601.99
2019-02-10T15:21:02.108Z,98595.17
2019-02-10T15:23:31.056Z,98589.80
2019-02-10T15:26:00.105Z,98595.55
2019-02-10T15:28:29.157Z,98594.61
2019-02-10T15:30:58.217Z,98596.81
2019-02-10T15:33:27.225Z,98598.77
2019-02-10T15:35:56.297Z,98605.84
2019-02-10T15:38:25.359Z,98598.02
2019-02-10T15:40:54.472Z,98599.05
2019-02-10T15:43:23.487Z,98609.08
2019-02-10T15:45:52.799Z,98600.88
2019-02-10T15:48:21.856Z,98605.33
2019-02-10T15:50:51.137Z,98596.41
2019-02-10T15:53:20.470Z,98601.08
2019-02-10T15:55:49.545Z,98598.82
2019-02-10T15:58:18.858Z,98590.98
2019-02-10T16:00:47.868Z,98598.23
2019-02-10T16:03:16.917Z,98592.42
2019-02-10T16:05:45.989Z,98590.36
2019-02-10T16:08:15.046Z,98591.05
2019-02-10T16:10:44.076Z,98597.16
2019-02-10T16:13:13.222Z,98603.00
2019-02-10T16:15:42.369Z,98595.22
2019-02-10T16:18:11.712Z,98609.51
2019-02-10T16:20:40.760Z,98588.50
2019-02-10T16:23:09.818Z,98602.88
2019-02-10T16:25:38.846Z,98600.58
2019-02-10T16:28:07.856Z,98593.61
2019-02-10T16:30:36.919Z,98587.09
2019-02-10T16:33:05.936Z,98583.23
2019-02-10T16:35:34.946Z,98579.95
2019-02-10T16:38:03.959Z,98589.16
2019-02-10T16:40:33.283Z,98589.92
2019-02-10T16:43:02.384Z,98594.43
2019-02-10T16:45:31.394Z,98610.98
2019-02-10T16:48:00.335Z,98596.30
2019-02-10T16:50:29.478Z,98605.46
2019-02-10T16:52:58.558Z,98606.56
2019-02-10T16:55:27.481Z,98596.80
2019-02-10T16:57:56.467Z,98595.44
2019-02-10T17:00:25.477Z,98615.43
2019-02-10T17:02:54.488Z,98612.42
2019-02-10T17:05:24.162Z,98624.19
2019-02-10T17:07:53.237Z,98628.02
2019-02-10T17:10:22.342Z,98628.95
2019-02-10T17:12:51.365Z,98631.30
2019-02-10T17:15:20.373Z,98630.42
2019-02-10T17:17:49.422Z,98638.64
2019-02-10T17:20:18.449Z,98639.85
2019-02-10T17:22:47.505Z,98652.94
2019-02-10T17:25:16.744Z,98650.47
2019-02-10T17:27:45.800Z,98660.80
2019-02-10T17:30:15.306Z,98648.36
2019-02-10T17:32:44.310Z,98646.86
2019-02-10T17:35:13.549Z,98644.58
2019-02-10T17:37:42.697Z,98660.03
2019-02-10T17:40:18.576Z,98660.80
2019-02-10T17:42:50.481Z,98661.29
2019-02-10T17:45:19.744Z,98667.16
2019-02-10T17:47:48.687Z,98670.05
2019-02-10T17:50:17.779Z,98680.43
2019-02-10T17:52:46.788Z,98672.88
2019-02-10T17:55:15.845Z,98689.83
2019-02-10T17:57:47.894Z,98696.13
2019-02-10T18:00:17.660Z,98692.93
2019-02-10T18:02:46.716Z,98700.77
2019-02-10T18:05:15.774Z,98706.19
2019-02-10T18:07:45.101Z,98710.23
2019-02-10T18:10:14.199Z,98711.66
2019-02-10T18:12:43.255Z,98728.30
2019-02-10T18:15:30.256Z,98739.97
2019-02-10T18:18:18.518Z,98734.55
2019-02-10T18:21:03.389Z,98750.69
2019-02-10T18:23:50.360Z,98751.77
2019-02-10T18:26:30.755Z,98760.19
2019-02-10T18:29:23.713Z,98761.66
2019-02-10T18:32:10.640Z,98767.04
2019-02-10T18:34:58.681Z,98771.52
2019-02-10T18:37:38.365Z,98774.52
2019-02-10T18:40:21.631Z,98780.33
2019-02-10T18:43:15.816Z,98794.08
2019-02-10T18:46:03.807Z,98802.46
2019-02-10T18:48:48.745Z,98799.72
2019-02-10T18:51:35.949Z,98805.92
2019-02-10T18:54:15.553Z,98817.08
2019-02-10T18:57:06.533Z,98823.72
2019-02-10T19:00:07.010Z,98829.40
2019-02-10T19:03:00.945Z,98840.16
2019-02-10T19:05:37.328Z,98861.57
2019-02-10T19:08:24.374Z,98845.98
2019-02-10T19:11:07.841Z,98850.54
2019-02-10T19:13:51.659Z,98857.44
2019-02-10T19:16:39.695Z,98854.73
2019-02-10T19:19:19.907Z,98866.37
2019-02-10T19:22:19.048Z,98876.02
2019-02-10T19:25:07.101Z,98876.59
2019-02-10T19:27:54.078Z,98889.92
2019-02-10T19:30:46.449Z,98889.35
2019-02-10T19:33:33.394Z,98899.39
2019-02-10T19:39:03.028Z,98920.92
2019-02-10T19:41:36.494Z,98922.71
2019-02-10T19:44:31.450Z,98917.05
2019-02-10T19:47:19.546Z,98923.21
2019-02-10T19:50:10.461Z,98933.73
2019-02-10T19:53:07.621Z,98934.41
2019-02-10T19:55:55.580Z,98943.54
2019-02-10T19:58:42.628Z,98955.31
2019-02-10T20:01:32.697Z,98961.97
2019-02-10T20:04:08.492Z,98971.57
2019-02-10T20:06:56.382Z,98973.17
2019-02-10T20:09:47.156Z,98983.17
2019-02-10T20:12:30.207Z,98999.12
2019-02-10T20:15:07.437Z,98990.16
2019-02-10T20:17:50.974Z,99002.33
2019-02-10T20:20:42.127Z,99007.67
2019-02-10T20:23:42.402Z,99008.75
2019-02-10T20:26:26.553Z,99022.62
2019-02-10T20:29:13.217Z,99015.70
2019-02-10T20:32:01.168Z,99024.42
2019-02-10T20:34:47.837Z,99035.77
2019-02-10T20:37:42.628Z,99039.37
2019-02-10T20:40:21.655Z,99041.41
2019-02-10T20:43:15.668Z,99043.50
2019-02-10T20:46:16.175Z,99046.36
2019-02-10T20:49:02.829Z,99060.05
2019-02-10T20:51:57.762Z,99066.17
2019-02-10T20:54:44.327Z,99072.15
2019-02-10T20:57:18.993Z,99078.02
2019-02-10T21:00:19.309Z,99085.45
2019-02-10T21:03:01.667Z,99093.66
2019-02-10T21:05:49.590Z,99096.72
2019-02-10T21:08:42.512Z,99116.69
2019-02-10T21:11:33.594Z,99112.21
2019-02-10T21:14:17.785Z,99133.56
2019-02-10T21:16:53.511Z,99132.16
2019-02-10T21:19:57.009Z,99144.69
2019-02-10T21:22:36.325Z,99148.67
2019-02-10T21:25:18.996Z,99154.11
2019-02-10T21:28:00.319Z,99165.48
2019-02-10T21:30:43.279Z,99170.25
2019-02-10T21:33:21.678Z,99175.40
2019-02-10T21:36:21.694Z,99196.05
2019-02-10T21:38:57.637Z,99193.56
2019-02-10T21:41:33.899Z,99213.30
2019-02-10T21:44:20.810Z,99208.97
2019-02-10T21:47:00.489Z,99219.95
2019-02-10T21:49:29.700Z,99228.89
2019-02-10T21:51:58.763Z,99240.34
2019-02-10T21:54:28.165Z,99242.09
2019-02-10T21:56:57.525Z,99250.33
2019-02-10T21:59:26.570Z,99256.43
2019-02-10T22:01:55.628Z,99261.31
2019-02-10T22:04:24.566Z,99267.36
2019-02-10T22:06:53.580Z,99287.64
2019-02-10T22:09:22.660Z,99280.06
2019-02-10T22:11:51.677Z,99297.43
2019-02-10T22:14:20.655Z,99294.99
2019-02-10T22:16:49.985Z,99307.52
2019-02-10T22:19:18.843Z,99311.95
2019-02-10T22:21:47.882Z,99323.05
2019-02-10T22:24:16.930Z,99335.30
2019-02-10T22:26:45.988Z,99336.09
2019-02-10T22:29:14.948Z,99336.30
2019-02-10T22:31:43.955Z,99332.28
2019-02-10T22:34:13.029Z,99331.02
2019-02-10T22:36:42.072Z,99348.75
2019-02-10T22:39:11.083Z,99353.02
2019-02-10T22:41:40.100Z,99360.34
2019-02-10T22:44:09.143Z,99369.60
2019-02-10T22:46:38.108Z,99382.61
2019-02-10T22:49:07.365Z,99382.69
2019-02-10T22:51:36.408Z,99388.52
2019-02-10T22:54:05.456Z,99395.66
2019-02-10T22:56:34.503Z,99398.33
2019-02-10T22:59:03.513Z,99404.78
2019-02-10T23:01:32.949Z,99413.24
2019-02-10T23:04:01.996Z,99420.34
2019-02-10T23:06:31.050Z,99424.09
2019-02-10T23:09:00.087Z,99434.14
2019-02-10T23:11:29.723Z,99430.64
2019-02-10T23:13:58.688Z,99444.48
2019-02-10T23:16:27.620Z,99443.88
2019-02-10T23:18:56.668Z,99453.57
2019-02-10T23:21:25.716Z,99459.33
2019-02-10T23:23:54.728Z,99467.23
2019-02-10T23:26:23.776Z,99478.55
2019-02-10T23:28:53.182Z,99483.02
2019-02-10T23:31:22.229Z,99482.58
2019-02-10T23:33:51.589Z,99490.44
2019-02-10T23:36:20.614Z,99494.16
2019-02-10T23:38:49.657Z,99497.03
2019-02-10T23:41:18.697Z,99505.33
2019-02-10T23:43:48.084Z,99511.56
2019-02-10T23:46:17.106Z,99524.88
2019-02-10T23:48:46.114Z,99519.36
2019-02-10T23:51:15.185Z,99534.24
2019-02-10T23:53:44.113Z,99527.03
2019-02-10T23:56:13.174Z,99542.10
2019-02-10T23:58:42.192Z,99544.13
